sensor_id;sensor_type;location;lat;lon;timestamp;P1;durP1;ratioP1;P2;durP2;ratioP2
25511;SDS011;13414;44.534;18.700;2024-03-07T00:00:27;56.85;;;40.50;;
25511;SDS011;13414;44.534;18.700;2024-03-07T00:02:56;55.00;;;39.70;;
25511;SDS011;13414;44.534;18.700;2024-03-07T00:05:24;59.95;;;40.88;;
25511;SDS011;13414;44.534;18.700;2024-03-07T00:07:52;55.03;;;38.90;;
25511;SDS011;13414;44.534;18.700;2024-03-07T00:10:20;50.42;;;36.80;;
25511;SDS011;13414;44.534;18.700;2024-03-07T00:12:48;51.78;;;37.42;;
25511;SDS011;13414;44.534;18.700;2024-03-07T00:15:16;44.65;;;33.83;;
25511;SDS011;13414;44.534;18.700;2024-03-07T00:17:46;46.60;;;34.67;;
25511;SDS011;13414;44.534;18.700;2024-03-07T00:20:15;44.28;;;32.47;;
25511;SDS011;13414;44.534;18.700;2024-03-07T00:22:44;44.05;;;30.20;;
25511;SDS011;13414;44.534;18.700;2024-03-07T00:25:12;40.95;;;30.70;;
25511;SDS011;13414;44.534;18.700;2024-03-07T00:27:44;43.92;;;30.25;;
25511;SDS011;13414;44.534;18.700;2024-03-07T00:30:12;37.10;;;26.40;;
25511;SDS011;13414;44.534;18.700;2024-03-07T00:32:43;39.50;;;28.30;;
25511;SDS011;13414;44.534;18.700;2024-03-07T00:35:11;37.08;;;28.15;;
25511;SDS011;13414;44.534;18.700;2024-03-07T00:37:40;27.13;;;19.20;;
25511;SDS011;13414;44.534;18.700;2024-03-07T00:40:08;19.55;;;14.18;;
25511;SDS011;13414;44.534;18.700;2024-03-07T00:42:35;18.50;;;13.13;;
25511;SDS011;13414;44.534;18.700;2024-03-07T00:45:03;21.63;;;15.98;;
25511;SDS011;13414;44.534;18.700;2024-03-07T00:47:32;20.15;;;15.60;;
25511;SDS011;13414;44.534;18.700;2024-03-07T00:49:59;21.33;;;14.88;;
25511;SDS011;13414;44.534;18.700;2024-03-07T00:52:27;20.55;;;15.75;;
25511;SDS011;13414;44.534;18.700;2024-03-07T00:54:55;22.85;;;16.70;;
25511;SDS011;13414;44.534;18.700;2024-03-07T00:57:24;21.65;;;16.88;;
25511;SDS011;13414;44.534;18.700;2024-03-07T00:59:54;24.17;;;18.02;;
25511;SDS011;13414;44.534;18.700;2024-03-07T01:02:22;22.83;;;16.65;;
25511;SDS011;13414;44.534;18.700;2024-03-07T01:04:51;22.65;;;17.13;;
25511;SDS011;13414;44.534;18.700;2024-03-07T01:07:18;22.38;;;16.73;;
25511;SDS011;13414;44.534;18.700;2024-03-07T01:09:46;23.27;;;17.63;;
25511;SDS011;13414;44.534;18.700;2024-03-07T01:12:15;21.65;;;16.63;;
25511;SDS011;13414;44.534;18.700;2024-03-07T01:14:45;25.63;;;17.08;;
25511;SDS011;13414;44.534;18.700;2024-03-07T01:17:12;21.50;;;15.77;;
25511;SDS011;13414;44.534;18.700;2024-03-07T01:19:40;23.27;;;16.63;;
25511;SDS011;13414;44.534;18.700;2024-03-07T01:22:07;19.25;;;15.05;;
25511;SDS011;13414;44.534;18.700;2024-03-07T01:24:35;20.40;;;15.25;;
25511;SDS011;13414;44.534;18.700;2024-03-07T01:27:02;19.10;;;14.55;;
25511;SDS011;13414;44.534;18.700;2024-03-07T01:29:31;15.52;;;12.07;;
25511;SDS011;13414;44.534;18.700;2024-03-07T01:32:00;11.48;;;9.52;;
25511;SDS011;13414;44.534;18.700;2024-03-07T01:34:28;11.55;;;8.90;;
25511;SDS011;13414;44.534;18.700;2024-03-07T01:36:56;13.30;;;8.52;;
25511;SDS011;13414;44.534;18.700;2024-03-07T01:39:23;10.63;;;7.78;;
25511;SDS011;13414;44.534;18.700;2024-03-07T01:41:51;11.15;;;8.00;;
25511;SDS011;13414;44.534;18.700;2024-03-07T01:44:19;12.43;;;8.02;;
25511;SDS011;13414;44.534;18.700;2024-03-07T01:46:48;10.65;;;8.90;;
25511;SDS011;13414;44.534;18.700;2024-03-07T01:49:16;12.10;;;8.85;;
25511;SDS011;13414;44.534;18.700;2024-03-07T01:51:43;10.85;;;8.80;;
25511;SDS011;13414;44.534;18.700;2024-03-07T01:54:11;11.98;;;9.18;;
25511;SDS011;13414;44.534;18.700;2024-03-07T01:56:39;15.18;;;11.60;;
25511;SDS011;13414;44.534;18.700;2024-03-07T01:59:06;14.18;;;10.73;;
25511;SDS011;13414;44.534;18.700;2024-03-07T02:01:34;14.20;;;10.38;;
25511;SDS011;13414;44.534;18.700;2024-03-07T02:04:04;11.60;;;9.55;;
25511;SDS011;13414;44.534;18.700;2024-03-07T02:06:33;12.80;;;9.73;;
25511;SDS011;13414;44.534;18.700;2024-03-07T02:09:01;13.18;;;9.30;;
25511;SDS011;13414;44.534;18.700;2024-03-07T02:11:28;12.48;;;9.20;;
25511;SDS011;13414;44.534;18.700;2024-03-07T02:13:56;13.48;;;9.35;;
25511;SDS011;13414;44.534;18.700;2024-03-07T02:16:23;12.60;;;9.48;;
25511;SDS011;13414;44.534;18.700;2024-03-07T02:18:51;13.63;;;9.23;;
25511;SDS011;13414;44.534;18.700;2024-03-07T02:21:21;13.52;;;8.95;;
25511;SDS011;13414;44.534;18.700;2024-03-07T02:23:49;11.55;;;8.60;;
25511;SDS011;13414;44.534;18.700;2024-03-07T02:26:16;10.98;;;8.90;;
25511;SDS011;13414;44.534;18.700;2024-03-07T02:28:44;13.13;;;8.25;;
25511;SDS011;13414;44.534;18.700;2024-03-07T02:31:11;14.93;;;10.45;;
25511;SDS011;13414;44.534;18.700;2024-03-07T02:33:39;13.43;;;9.68;;
25511;SDS011;13414;44.534;18.700;2024-03-07T02:36:07;12.88;;;9.45;;
25511;SDS011;13414;44.534;18.700;2024-03-07T02:38:36;12.38;;;9.63;;
25511;SDS011;13414;44.534;18.700;2024-03-07T02:41:03;12.25;;;9.32;;
25511;SDS011;13414;44.534;18.700;2024-03-07T02:43:32;16.92;;;11.05;;
25511;SDS011;13414;44.534;18.700;2024-03-07T02:46:03;13.40;;;9.35;;
25511;SDS011;13414;44.534;18.700;2024-03-07T02:48:31;11.88;;;9.05;;
25511;SDS011;13414;44.534;18.700;2024-03-07T02:50:59;12.88;;;8.35;;
25511;SDS011;13414;44.534;18.700;2024-03-07T02:53:26;11.13;;;9.02;;
25511;SDS011;13414;44.534;18.700;2024-03-07T02:55:55;12.82;;;9.18;;
25511;SDS011;13414;44.534;18.700;2024-03-07T02:58:22;13.52;;;9.60;;
25511;SDS011;13414;44.534;18.700;2024-03-07T03:00:56;13.57;;;9.65;;
25511;SDS011;13414;44.534;18.700;2024-03-07T03:03:25;12.30;;;9.68;;
25511;SDS011;13414;44.534;18.700;2024-03-07T03:05:52;12.48;;;9.65;;
25511;SDS011;13414;44.534;18.700;2024-03-07T03:08:20;11.73;;;8.65;;
25511;SDS011;13414;44.534;18.700;2024-03-07T03:10:47;11.48;;;8.40;;
25511;SDS011;13414;44.534;18.700;2024-03-07T03:13:18;10.70;;;8.30;;
25511;SDS011;13414;44.534;18.700;2024-03-07T03:15:46;9.93;;;7.38;;
25511;SDS011;13414;44.534;18.700;2024-03-07T03:18:13;8.00;;;6.32;;
25511;SDS011;13414;44.534;18.700;2024-03-07T03:20:41;9.73;;;6.82;;
25511;SDS011;13414;44.534;18.700;2024-03-07T03:23:09;9.32;;;5.95;;
25511;SDS011;13414;44.534;18.700;2024-03-07T03:25:38;8.55;;;6.13;;
25511;SDS011;13414;44.534;18.700;2024-03-07T03:28:06;7.97;;;5.60;;
25511;SDS011;13414;44.534;18.700;2024-03-07T03:30:36;7.55;;;4.72;;
25511;SDS011;13414;44.534;18.700;2024-03-07T03:33:04;7.63;;;4.65;;
25511;SDS011;13414;44.534;18.700;2024-03-07T03:35:33;7.38;;;4.70;;
25511;SDS011;13414;44.534;18.700;2024-03-07T03:38:01;7.20;;;5.00;;
25511;SDS011;13414;44.534;18.700;2024-03-07T03:40:29;7.07;;;4.82;;
25511;SDS011;13414;44.534;18.700;2024-03-07T03:42:56;6.50;;;4.43;;
25511;SDS011;13414;44.534;18.700;2024-03-07T03:45:24;6.38;;;4.63;;
25511;SDS011;13414;44.534;18.700;2024-03-07T03:47:53;7.18;;;4.35;;
25511;SDS011;13414;44.534;18.700;2024-03-07T03:50:21;6.53;;;4.85;;
25511;SDS011;13414;44.534;18.700;2024-03-07T03:52:49;8.80;;;5.03;;
25511;SDS011;13414;44.534;18.700;2024-03-07T03:55:18;6.40;;;4.35;;
25511;SDS011;13414;44.534;18.700;2024-03-07T03:57:46;6.72;;;4.18;;
25511;SDS011;13414;44.534;18.700;2024-03-07T04:00:15;6.07;;;3.90;;
25511;SDS011;13414;44.534;18.700;2024-03-07T04:02:43;6.65;;;4.07;;
25511;SDS011;13414;44.534;18.700;2024-03-07T04:05:16;6.45;;;3.90;;
25511;SDS011;13414;44.534;18.700;2024-03-07T04:07:44;6.47;;;4.30;;
25511;SDS011;13414;44.534;18.700;2024-03-07T04:10:12;6.45;;;4.75;;
25511;SDS011;13414;44.534;18.700;2024-03-07T04:12:41;6.68;;;4.15;;
25511;SDS011;13414;44.534;18.700;2024-03-07T04:15:11;7.90;;;4.22;;
25511;SDS011;13414;44.534;18.700;2024-03-07T04:17:42;7.60;;;4.40;;
25511;SDS011;13414;44.534;18.700;2024-03-07T04:20:10;5.68;;;4.22;;
25511;SDS011;13414;44.534;18.700;2024-03-07T04:22:40;6.43;;;4.60;;
25511;SDS011;13414;44.534;18.700;2024-03-07T04:25:07;8.63;;;4.53;;
25511;SDS011;13414;44.534;18.700;2024-03-07T04:27:35;8.27;;;4.88;;
25511;SDS011;13414;44.534;18.700;2024-03-07T04:30:05;5.95;;;4.60;;
25511;SDS011;13414;44.534;18.700;2024-03-07T04:32:36;6.93;;;4.65;;
25511;SDS011;13414;44.534;18.700;2024-03-07T04:35:04;7.55;;;4.47;;
25511;SDS011;13414;44.534;18.700;2024-03-07T04:37:35;7.57;;;4.57;;
25511;SDS011;13414;44.534;18.700;2024-03-07T04:40:05;8.00;;;4.75;;
25511;SDS011;13414;44.534;18.700;2024-03-07T04:42:40;7.20;;;4.90;;
25511;SDS011;13414;44.534;18.700;2024-03-07T04:45:09;7.18;;;5.10;;
25511;SDS011;13414;44.534;18.700;2024-03-07T04:47:38;5.82;;;4.28;;
25511;SDS011;13414;44.534;18.700;2024-03-07T04:50:07;8.48;;;4.82;;
25511;SDS011;13414;44.534;18.700;2024-03-07T04:52:36;8.30;;;5.00;;
25511;SDS011;13414;44.534;18.700;2024-03-07T04:55:06;8.32;;;4.82;;
25511;SDS011;13414;44.534;18.700;2024-03-07T04:57:35;8.63;;;5.20;;
25511;SDS011;13414;44.534;18.700;2024-03-07T05:00:04;7.32;;;5.38;;
25511;SDS011;13414;44.534;18.700;2024-03-07T05:02:39;7.93;;;5.55;;
25511;SDS011;13414;44.534;18.700;2024-03-07T05:05:07;10.10;;;6.28;;
25511;SDS011;13414;44.534;18.700;2024-03-07T05:07:34;10.25;;;6.85;;
25511;SDS011;13414;44.534;18.700;2024-03-07T05:10:02;10.60;;;7.45;;
25511;SDS011;13414;44.534;18.700;2024-03-07T05:12:31;12.48;;;8.13;;
25511;SDS011;13414;44.534;18.700;2024-03-07T05:14:58;11.55;;;8.20;;
25511;SDS011;13414;44.534;18.700;2024-03-07T05:17:26;12.13;;;7.90;;
25511;SDS011;13414;44.534;18.700;2024-03-07T05:19:54;12.80;;;7.78;;
25511;SDS011;13414;44.534;18.700;2024-03-07T05:22:21;10.50;;;7.45;;
25511;SDS011;13414;44.534;18.700;2024-03-07T05:24:50;11.88;;;8.73;;
25511;SDS011;13414;44.534;18.700;2024-03-07T05:27:20;12.00;;;8.43;;
25511;SDS011;13414;44.534;18.700;2024-03-07T05:29:56;11.32;;;8.60;;
25511;SDS011;13414;44.534;18.700;2024-03-07T05:32:25;14.95;;;9.48;;
25511;SDS011;13414;44.534;18.700;2024-03-07T05:34:55;11.88;;;8.90;;
25511;SDS011;13414;44.534;18.700;2024-03-07T05:37:22;23.95;;;11.23;;
25511;SDS011;13414;44.534;18.700;2024-03-07T05:39:50;12.88;;;8.95;;
25511;SDS011;13414;44.534;18.700;2024-03-07T05:42:18;13.60;;;10.23;;
25511;SDS011;13414;44.534;18.700;2024-03-07T05:44:45;17.30;;;10.80;;
25511;SDS011;13414;44.534;18.700;2024-03-07T05:47:14;14.27;;;10.65;;
25511;SDS011;13414;44.534;18.700;2024-03-07T05:49:42;17.05;;;11.68;;
25511;SDS011;13414;44.534;18.700;2024-03-07T05:52:10;16.90;;;11.05;;
25511;SDS011;13414;44.534;18.700;2024-03-07T05:54:37;16.95;;;12.32;;
25511;SDS011;13414;44.534;18.700;2024-03-07T05:57:05;18.42;;;12.23;;
25511;SDS011;13414;44.534;18.700;2024-03-07T05:59:32;17.05;;;11.60;;
25511;SDS011;13414;44.534;18.700;2024-03-07T06:02:00;16.30;;;11.77;;
25511;SDS011;13414;44.534;18.700;2024-03-07T06:04:29;18.30;;;13.18;;
25511;SDS011;13414;44.534;18.700;2024-03-07T06:06:57;16.08;;;12.98;;
25511;SDS011;13414;44.534;18.700;2024-03-07T06:09:25;17.70;;;13.73;;
25511;SDS011;13414;44.534;18.700;2024-03-07T06:11:54;19.52;;;14.07;;
25511;SDS011;13414;44.534;18.700;2024-03-07T06:14:21;21.13;;;14.63;;
25511;SDS011;13414;44.534;18.700;2024-03-07T06:16:49;18.58;;;14.43;;
25511;SDS011;13414;44.534;18.700;2024-03-07T06:19:18;20.98;;;13.57;;
25511;SDS011;13414;44.534;18.700;2024-03-07T06:21:47;17.63;;;13.15;;
25511;SDS011;13414;44.534;18.700;2024-03-07T06:24:14;20.70;;;15.43;;
25511;SDS011;13414;44.534;18.700;2024-03-07T06:26:47;22.45;;;17.10;;
25511;SDS011;13414;44.534;18.700;2024-03-07T06:29:25;20.52;;;15.95;;
25511;SDS011;13414;44.534;18.700;2024-03-07T06:31:52;18.35;;;13.48;;
25511;SDS011;13414;44.534;18.700;2024-03-07T06:34:20;21.02;;;15.75;;
25511;SDS011;13414;44.534;18.700;2024-03-07T06:36:49;18.63;;;13.63;;
25511;SDS011;13414;44.534;18.700;2024-03-07T06:39:16;21.05;;;13.95;;
25511;SDS011;13414;44.534;18.700;2024-03-07T06:41:47;20.75;;;14.50;;
25511;SDS011;13414;44.534;18.700;2024-03-07T06:44:14;20.48;;;14.40;;
25511;SDS011;13414;44.534;18.700;2024-03-07T06:46:42;24.75;;;16.15;;
25511;SDS011;13414;44.534;18.700;2024-03-07T06:49:11;18.77;;;12.90;;
25511;SDS011;13414;44.534;18.700;2024-03-07T06:51:38;23.17;;;15.15;;
25511;SDS011;13414;44.534;18.700;2024-03-07T06:54:07;22.73;;;15.68;;
25511;SDS011;13414;44.534;18.700;2024-03-07T06:56:34;22.17;;;14.25;;
25511;SDS011;13414;44.534;18.700;2024-03-07T06:59:02;18.75;;;13.35;;
25511;SDS011;13414;44.534;18.700;2024-03-07T07:01:30;24.30;;;14.70;;
25511;SDS011;13414;44.534;18.700;2024-03-07T07:03:56;21.67;;;14.77;;
25511;SDS011;13414;44.534;18.700;2024-03-07T07:06:28;25.70;;;16.02;;
25511;SDS011;13414;44.534;18.700;2024-03-07T07:08:56;21.75;;;14.45;;
25511;SDS011;13414;44.534;18.700;2024-03-07T07:11:29;27.92;;;17.35;;
25511;SDS011;13414;44.534;18.700;2024-03-07T07:13:56;26.88;;;17.55;;
25511;SDS011;13414;44.534;18.700;2024-03-07T07:16:24;25.65;;;17.63;;
25511;SDS011;13414;44.534;18.700;2024-03-07T07:18:52;22.70;;;14.90;;
25511;SDS011;13414;44.534;18.700;2024-03-07T07:21:20;24.92;;;16.92;;
25511;SDS011;13414;44.534;18.700;2024-03-07T07:23:48;29.67;;;15.98;;
25511;SDS011;13414;44.534;18.700;2024-03-07T07:26:15;21.52;;;14.93;;
25511;SDS011;13414;44.534;18.700;2024-03-07T07:28:44;21.35;;;14.98;;
25511;SDS011;13414;44.534;18.700;2024-03-07T07:31:12;25.10;;;15.93;;
25511;SDS011;13414;44.534;18.700;2024-03-07T07:33:40;23.05;;;15.80;;
25511;SDS011;13414;44.534;18.700;2024-03-07T07:36:08;18.30;;;12.60;;
25511;SDS011;13414;44.534;18.700;2024-03-07T07:38:36;21.15;;;12.82;;
25511;SDS011;13414;44.534;18.700;2024-03-07T07:41:04;20.55;;;14.30;;
25511;SDS011;13414;44.534;18.700;2024-03-07T07:43:32;22.70;;;16.80;;
25511;SDS011;13414;44.534;18.700;2024-03-07T07:46:01;22.45;;;17.20;;
25511;SDS011;13414;44.534;18.700;2024-03-07T07:48:29;44.97;;;22.08;;
25511;SDS011;13414;44.534;18.700;2024-03-07T07:50:56;31.75;;;22.40;;
25511;SDS011;13414;44.534;18.700;2024-03-07T07:53:24;29.35;;;20.15;;
25511;SDS011;13414;44.534;18.700;2024-03-07T07:55:52;25.42;;;19.67;;
25511;SDS011;13414;44.534;18.700;2024-03-07T07:58:21;25.65;;;19.77;;
25511;SDS011;13414;44.534;18.700;2024-03-07T08:00:49;25.38;;;17.33;;
25511;SDS011;13414;44.534;18.700;2024-03-07T08:03:18;27.60;;;19.40;;
25511;SDS011;13414;44.534;18.700;2024-03-07T08:05:53;25.05;;;18.80;;
25511;SDS011;13414;44.534;18.700;2024-03-07T08:08:21;29.25;;;21.10;;
25511;SDS011;13414;44.534;18.700;2024-03-07T08:10:48;32.92;;;24.45;;
25511;SDS011;13414;44.534;18.700;2024-03-07T08:13:16;29.73;;;22.58;;
25511;SDS011;13414;44.534;18.700;2024-03-07T08:15:43;34.55;;;23.92;;
25511;SDS011;13414;44.534;18.700;2024-03-07T08:18:13;30.23;;;23.25;;
25511;SDS011;13414;44.534;18.700;2024-03-07T08:20:42;33.47;;;23.63;;
25511;SDS011;13414;44.534;18.700;2024-03-07T08:23:09;35.58;;;24.77;;
25511;SDS011;13414;44.534;18.700;2024-03-07T08:25:38;27.30;;;18.73;;
25511;SDS011;13414;44.534;18.700;2024-03-07T08:28:06;25.33;;;18.38;;
25511;SDS011;13414;44.534;18.700;2024-03-07T08:30:34;25.48;;;16.80;;
25511;SDS011;13414;44.534;18.700;2024-03-07T08:33:02;23.80;;;15.60;;
25511;SDS011;13414;44.534;18.700;2024-03-07T08:35:30;33.72;;;17.90;;
25511;SDS011;13414;44.534;18.700;2024-03-07T08:37:59;27.33;;;16.40;;
25511;SDS011;13414;44.534;18.700;2024-03-07T08:40:27;31.23;;;19.52;;
25511;SDS011;13414;44.534;18.700;2024-03-07T08:42:58;34.25;;;20.98;;
25511;SDS011;13414;44.534;18.700;2024-03-07T08:45:26;36.38;;;21.35;;
25511;SDS011;13414;44.534;18.700;2024-03-07T08:47:58;33.80;;;20.65;;
25511;SDS011;13414;44.534;18.700;2024-03-07T08:50:27;38.85;;;23.17;;
25511;SDS011;13414;44.534;18.700;2024-03-07T08:52:55;59.78;;;35.00;;
25511;SDS011;13414;44.534;18.700;2024-03-07T08:55:24;67.07;;;40.00;;
25511;SDS011;13414;44.534;18.700;2024-03-07T08:57:52;60.95;;;38.33;;
25511;SDS011;13414;44.534;18.700;2024-03-07T09:00:21;57.55;;;37.38;;
25511;SDS011;13414;44.534;18.700;2024-03-07T09:02:51;54.78;;;35.33;;
25511;SDS011;13414;44.534;18.700;2024-03-07T09:05:21;57.15;;;33.67;;
25511;SDS011;13414;44.534;18.700;2024-03-07T09:07:50;57.08;;;36.47;;
25511;SDS011;13414;44.534;18.700;2024-03-07T09:10:19;57.78;;;37.15;;
25511;SDS011;13414;44.534;18.700;2024-03-07T09:12:49;56.15;;;34.42;;
25511;SDS011;13414;44.534;18.700;2024-03-07T09:15:17;56.10;;;35.83;;
25511;SDS011;13414;44.534;18.700;2024-03-07T09:17:47;53.40;;;34.72;;
25511;SDS011;13414;44.534;18.700;2024-03-07T09:20:15;52.03;;;34.28;;
25511;SDS011;13414;44.534;18.700;2024-03-07T09:22:44;38.42;;;27.58;;
25511;SDS011;13414;44.534;18.700;2024-03-07T09:25:12;37.70;;;28.20;;
25511;SDS011;13414;44.534;18.700;2024-03-07T09:27:41;71.05;;;32.20;;
25511;SDS011;13414;44.534;18.700;2024-03-07T09:30:12;38.03;;;27.88;;
25511;SDS011;13414;44.534;18.700;2024-03-07T09:32:42;38.47;;;28.42;;
25511;SDS011;13414;44.534;18.700;2024-03-07T09:35:10;40.65;;;29.38;;
25511;SDS011;13414;44.534;18.700;2024-03-07T09:37:39;44.45;;;32.70;;
25511;SDS011;13414;44.534;18.700;2024-03-07T09:40:08;43.17;;;33.15;;
25511;SDS011;13414;44.534;18.700;2024-03-07T09:42:37;41.38;;;30.80;;
25511;SDS011;13414;44.534;18.700;2024-03-07T09:45:12;42.10;;;30.10;;
25511;SDS011;13414;44.534;18.700;2024-03-07T09:47:44;37.05;;;28.08;;
25511;SDS011;13414;44.534;18.700;2024-03-07T09:50:13;30.98;;;22.85;;
25511;SDS011;13414;44.534;18.700;2024-03-07T09:52:44;31.13;;;22.85;;
25511;SDS011;13414;44.534;18.700;2024-03-07T09:55:15;35.38;;;24.98;;
25511;SDS011;13414;44.534;18.700;2024-03-07T09:57:42;30.95;;;23.63;;
25511;SDS011;13414;44.534;18.700;2024-03-07T10:00:13;41.13;;;26.20;;
25511;SDS011;13414;44.534;18.700;2024-03-07T10:02:49;33.38;;;23.98;;
25511;SDS011;13414;44.534;18.700;2024-03-07T10:05:19;35.78;;;24.38;;
25511;SDS011;13414;44.534;18.700;2024-03-07T10:07:49;38.65;;;25.20;;
25511;SDS011;13414;44.534;18.700;2024-03-07T10:10:17;32.50;;;23.63;;
25511;SDS011;13414;44.534;18.700;2024-03-07T10:12:44;36.05;;;23.95;;
25511;SDS011;13414;44.534;18.700;2024-03-07T10:15:14;36.53;;;23.33;;
25511;SDS011;13414;44.534;18.700;2024-03-07T10:17:42;36.47;;;22.30;;
25511;SDS011;13414;44.534;18.700;2024-03-07T10:20:12;35.50;;;21.48;;
25511;SDS011;13414;44.534;18.700;2024-03-07T10:22:40;38.38;;;23.23;;
25511;SDS011;13414;44.534;18.700;2024-03-07T10:25:07;34.15;;;21.25;;
25511;SDS011;13414;44.534;18.700;2024-03-07T10:27:36;35.55;;;21.98;;
25511;SDS011;13414;44.534;18.700;2024-03-07T10:30:07;37.88;;;23.17;;
25511;SDS011;13414;44.534;18.700;2024-03-07T10:32:41;36.70;;;23.23;;
25511;SDS011;13414;44.534;18.700;2024-03-07T10:35:08;35.85;;;22.17;;
25511;SDS011;13414;44.534;18.700;2024-03-07T10:37:40;41.25;;;24.88;;
25511;SDS011;13414;44.534;18.700;2024-03-07T10:40:12;34.40;;;23.50;;
25511;SDS011;13414;44.534;18.700;2024-03-07T10:42:45;40.38;;;24.73;;
25511;SDS011;13414;44.534;18.700;2024-03-07T10:45:17;40.92;;;23.70;;
25511;SDS011;13414;44.534;18.700;2024-03-07T10:47:52;37.33;;;24.05;;
25511;SDS011;13414;44.534;18.700;2024-03-07T10:50:24;41.53;;;24.13;;
25511;SDS011;13414;44.534;18.700;2024-03-07T10:53:07;44.78;;;27.70;;
25511;SDS011;13414;44.534;18.700;2024-03-07T10:55:45;46.42;;;27.40;;
25511;SDS011;13414;44.534;18.700;2024-03-07T10:58:23;45.83;;;27.15;;
25511;SDS011;13414;44.534;18.700;2024-03-07T11:00:55;37.43;;;26.00;;
25511;SDS011;13414;44.534;18.700;2024-03-07T11:03:26;44.05;;;26.75;;
25511;SDS011;13414;44.534;18.700;2024-03-07T11:05:54;46.45;;;27.80;;
25511;SDS011;13414;44.534;18.700;2024-03-07T11:08:23;48.15;;;31.73;;
25511;SDS011;13414;44.534;18.700;2024-03-07T11:10:55;58.00;;;36.55;;
25511;SDS011;13414;44.534;18.700;2024-03-07T11:13:22;61.50;;;34.58;;
25511;SDS011;13414;44.534;18.700;2024-03-07T11:15:53;56.95;;;33.63;;
25511;SDS011;13414;44.534;18.700;2024-03-07T11:19:29;53.88;;;35.00;;
25511;SDS011;13414;44.534;18.700;2024-03-07T11:22:50;62.35;;;39.63;;
25511;SDS011;13414;44.534;18.700;2024-03-07T11:26:07;67.80;;;44.00;;
25511;SDS011;13414;44.534;18.700;2024-03-07T11:28:50;68.60;;;44.60;;
25511;SDS011;13414;44.534;18.700;2024-03-07T11:31:25;70.13;;;45.05;;
25511;SDS011;13414;44.534;18.700;2024-03-07T11:34:11;69.95;;;46.05;;
25511;SDS011;13414;44.534;18.700;2024-03-07T11:36:45;76.18;;;48.10;;
25511;SDS011;13414;44.534;18.700;2024-03-07T11:42:06;72.25;;;47.08;;
25511;SDS011;13414;44.534;18.700;2024-03-07T11:44:34;76.25;;;49.67;;
25511;SDS011;13414;44.534;18.700;2024-03-07T11:47:05;78.82;;;48.95;;
25511;SDS011;13414;44.534;18.700;2024-03-07T11:49:35;78.45;;;49.53;;
25511;SDS011;13414;44.534;18.700;2024-03-07T11:52:04;85.90;;;52.20;;
25511;SDS011;13414;44.534;18.700;2024-03-07T11:54:37;81.40;;;49.53;;
25511;SDS011;13414;44.534;18.700;2024-03-07T11:57:06;83.70;;;51.13;;
25511;SDS011;13414;44.534;18.700;2024-03-07T11:59:39;87.10;;;53.05;;
25511;SDS011;13414;44.534;18.700;2024-03-07T12:02:11;85.13;;;54.08;;
25511;SDS011;13414;44.534;18.700;2024-03-07T12:04:41;75.45;;;44.60;;
25511;SDS011;13414;44.534;18.700;2024-03-07T12:07:10;75.60;;;45.65;;
25511;SDS011;13414;44.534;18.700;2024-03-07T12:09:37;69.85;;;43.03;;
25511;SDS011;13414;44.534;18.700;2024-03-07T12:12:05;60.45;;;39.03;;
25511;SDS011;13414;44.534;18.700;2024-03-07T12:14:34;69.05;;;41.28;;
25511;SDS011;13414;44.534;18.700;2024-03-07T12:17:02;69.32;;;42.05;;
25511;SDS011;13414;44.534;18.700;2024-03-07T12:19:31;66.45;;;40.35;;
25511;SDS011;13414;44.534;18.700;2024-03-07T12:22:01;68.93;;;42.17;;
25511;SDS011;13414;44.534;18.700;2024-03-07T12:24:31;61.83;;;39.17;;
25511;SDS011;13414;44.534;18.700;2024-03-07T12:27:06;62.53;;;38.63;;
25511;SDS011;13414;44.534;18.700;2024-03-07T12:29:35;61.08;;;37.40;;
25511;SDS011;13414;44.534;18.700;2024-03-07T12:32:04;59.40;;;37.97;;
25511;SDS011;13414;44.534;18.700;2024-03-07T12:34:33;57.65;;;38.50;;
25511;SDS011;13414;44.534;18.700;2024-03-07T12:37:06;53.85;;;35.40;;
25511;SDS011;13414;44.534;18.700;2024-03-07T12:39:36;57.38;;;37.63;;
25511;SDS011;13414;44.534;18.700;2024-03-07T12:42:11;56.15;;;37.20;;
25511;SDS011;13414;44.534;18.700;2024-03-07T12:44:40;61.10;;;38.42;;
25511;SDS011;13414;44.534;18.700;2024-03-07T12:47:11;57.30;;;36.33;;
25511;SDS011;13414;44.534;18.700;2024-03-07T12:49:39;59.63;;;37.33;;
25511;SDS011;13414;44.534;18.700;2024-03-07T12:52:07;57.60;;;36.80;;
25511;SDS011;13414;44.534;18.700;2024-03-07T12:54:39;60.60;;;39.90;;
25511;SDS011;13414;44.534;18.700;2024-03-07T12:57:08;63.47;;;40.50;;
25511;SDS011;13414;44.534;18.700;2024-03-07T12:59:36;60.97;;;39.50;;
25511;SDS011;13414;44.534;18.700;2024-03-07T13:02:06;57.30;;;37.13;;
25511;SDS011;13414;44.534;18.700;2024-03-07T13:04:34;59.05;;;38.20;;
25511;SDS011;13414;44.534;18.700;2024-03-07T13:07:03;60.22;;;39.50;;
25511;SDS011;13414;44.534;18.700;2024-03-07T13:09:30;58.88;;;38.85;;
25511;SDS011;13414;44.534;18.700;2024-03-07T13:12:00;66.88;;;41.72;;
25511;SDS011;13414;44.534;18.700;2024-03-07T13:14:29;63.72;;;40.88;;
25511;SDS011;13414;44.534;18.700;2024-03-07T13:16:59;69.22;;;45.47;;
25511;SDS011;13414;44.534;18.700;2024-03-07T13:19:28;73.07;;;45.75;;
25511;SDS011;13414;44.534;18.700;2024-03-07T13:21:56;74.10;;;44.78;;
25511;SDS011;13414;44.534;18.700;2024-03-07T13:24:24;73.88;;;45.80;;
25511;SDS011;13414;44.534;18.700;2024-03-07T13:26:52;64.93;;;42.67;;
25511;SDS011;13414;44.534;18.700;2024-03-07T13:29:21;59.20;;;38.65;;
25511;SDS011;13414;44.534;18.700;2024-03-07T13:31:50;56.70;;;38.17;;
25511;SDS011;13414;44.534;18.700;2024-03-07T13:34:21;61.80;;;40.28;;
25511;SDS011;13414;44.534;18.700;2024-03-07T13:36:52;62.78;;;40.17;;
25511;SDS011;13414;44.534;18.700;2024-03-07T13:39:21;60.40;;;39.58;;
25511;SDS011;13414;44.534;18.700;2024-03-07T13:41:49;60.05;;;39.30;;
25511;SDS011;13414;44.534;18.700;2024-03-07T13:44:16;58.80;;;38.08;;
25511;SDS011;13414;44.534;18.700;2024-03-07T13:46:46;60.08;;;38.28;;
25511;SDS011;13414;44.534;18.700;2024-03-07T13:49:13;59.55;;;38.45;;
25511;SDS011;13414;44.534;18.700;2024-03-07T13:51:43;52.58;;;34.55;;
25511;SDS011;13414;44.534;18.700;2024-03-07T13:54:19;46.67;;;31.42;;
25511;SDS011;13414;44.534;18.700;2024-03-07T14:00:49;47.05;;;32.53;;
25511;SDS011;13414;44.534;18.700;2024-03-07T14:03:51;53.85;;;37.50;;
25511;SDS011;13414;44.534;18.700;2024-03-07T14:06:48;50.00;;;35.90;;
25511;SDS011;13414;44.534;18.700;2024-03-07T14:09:33;64.03;;;43.13;;
25511;SDS011;13414;44.534;18.700;2024-03-07T14:30:21;49.42;;;34.20;;
25511;SDS011;13414;44.534;18.700;2024-03-07T14:33:06;48.35;;;32.28;;
25511;SDS011;13414;44.534;18.700;2024-03-07T14:35:35;47.25;;;32.70;;
25511;SDS011;13414;44.534;18.700;2024-03-07T14:40:52;51.22;;;32.92;;
25511;SDS011;13414;44.534;18.700;2024-03-07T14:43:20;46.10;;;32.25;;
25511;SDS011;13414;44.534;18.700;2024-03-07T14:45:49;45.15;;;30.92;;
25511;SDS011;13414;44.534;18.700;2024-03-07T14:48:20;47.92;;;32.65;;
25511;SDS011;13414;44.534;18.700;2024-03-07T14:50:49;50.22;;;33.65;;
25511;SDS011;13414;44.534;18.700;2024-03-07T14:53:17;50.72;;;33.47;;
25511;SDS011;13414;44.534;18.700;2024-03-07T14:55:48;53.20;;;36.50;;